Impacts TAF Board
For situational awareness. Not to be used for flight planning purposes.
IDs:

KBFI - Seattle/Boeing Fld, WA, US

Issued at 2334 UTC 18 Oct 2021
Updated at 0247 UTC 19 Oct 2021
Potential Impact None Slight Moderate High
Time0153Z 19/03Z 19/04Z 19/05Z 19/06Z 19/07Z 19/08Z 19/09Z 19/10Z 19/11Z 19/12Z 19/13Z 19/14Z 19/15Z>>
Type OBS PRVL PRVL PRVL PRVL PRVL PRVL PRVL PRVL PRVL PRVL PRVL PRVL PRVL
VIS 10 >6 >6 >6 >6 >6 >6 >6 >6 >6 >6 >6 >6 2
CIG 49 -- -- -- -- -- -- -- -- -- -- -- -- 10
Cover OVC SCT SCT SCT SCT SCT SCT SCT SCT SCT SCT SCT SCT BKN
FltCat VFR VFR VFR VFR VFR VFR VFR VFR VFR VFR VFR VFR VFR IFR
WX -- -- -- -- -- -- -- -- -- -- -- -- -- BR
WDir VRB VRB VRB VRB VRB VRB VRB VRB VRB VRB VRB VRB VRB VRB
WSpd 3 3 3 3 3 3 3 3 3 3 3 3 3 2
WGst -- -- -- -- -- -- -- -- -- -- -- -- -- --
Raw TAF
KBFI 182334Z 1900/1924 27003KT P6SM BKN035
  FM190100 VRB03KT P6SM SCT040
  FM191500 VRB02KT 2SM BR SCT002 BKN010
  FM191800 05002KT P6SM SCT250


Raw METAR
KBFI 190153Z VRB03KT 10SM OVC049 12/07 A3000 RMK AO2 SLP159 T01220067
KBFI 190053Z 32003KT 10SM OVC039 12/06 A3000 RMK AO2 SLP158 T01220056
KBFI 182353Z 00000KT 10SM SCT035 BKN045 BKN055 13/06 A3000 RMK AO2 SLP157 T01280056 10133 20117 58001

METAR Board
Radar Display
Forecast Discussion
For situational awareness. Not to be used for flight planning purposes.